sensor_id;sensor_type;location;lat;lon;timestamp;P1;durP1;ratioP1;P2;durP2;ratioP2
3207;SDS011;1616;52.394;9.756;2023-01-01T00:00:04;11.63;;;7.67;;
3207;SDS011;1616;52.394;9.756;2023-01-01T00:02:35;11.03;;;6.87;;
3207;SDS011;1616;52.394;9.756;2023-01-01T00:05:01;9.70;;;6.80;;
3207;SDS011;1616;52.394;9.756;2023-01-01T00:07:30;12.43;;;6.47;;
3207;SDS011;1616;52.394;9.756;2023-01-01T00:09:57;13.87;;;7.20;;
3207;SDS011;1616;52.394;9.756;2023-01-01T00:12:42;8.47;;;4.87;;
3207;SDS011;1616;52.394;9.756;2023-01-01T00:15:09;10.97;;;5.20;;
3207;SDS011;1616;52.394;9.756;2023-01-01T00:17:36;8.97;;;5.23;;
3207;SDS011;1616;52.394;9.756;2023-01-01T00:20:03;12.40;;;5.17;;
3207;SDS011;1616;52.394;9.756;2023-01-01T00:22:34;8.23;;;3.60;;
3207;SDS011;1616;52.394;9.756;2023-01-01T00:25:00;7.57;;;3.80;;
3207;SDS011;1616;52.394;9.756;2023-01-01T00:27:26;6.00;;;4.60;;
3207;SDS011;1616;52.394;9.756;2023-01-01T00:29:53;3.20;;;2.33;;
3207;SDS011;1616;52.394;9.756;2023-01-01T00:32:22;4.93;;;3.23;;
3207;SDS011;1616;52.394;9.756;2023-01-01T00:34:49;5.03;;;3.40;;
3207;SDS011;1616;52.394;9.756;2023-01-01T00:37:15;10.07;;;2.90;;
3207;SDS011;1616;52.394;9.756;2023-01-01T00:39:42;9.63;;;3.10;;
3207;SDS011;1616;52.394;9.756;2023-01-01T00:42:11;7.20;;;2.83;;
3207;SDS011;1616;52.394;9.756;2023-01-01T00:44:37;8.63;;;2.60;;
3207;SDS011;1616;52.394;9.756;2023-01-01T00:47:04;8.40;;;2.93;;
3207;SDS011;1616;52.394;9.756;2023-01-01T00:49:30;10.03;;;2.03;;
3207;SDS011;1616;52.394;9.756;2023-01-01T00:51:56;4.97;;;2.40;;
3207;SDS011;1616;52.394;9.756;2023-01-01T00:54:22;3.93;;;2.27;;
3207;SDS011;1616;52.394;9.756;2023-01-01T00:56:49;9.53;;;3.53;;
3207;SDS011;1616;52.394;9.756;2023-01-01T00:59:14;6.90;;;2.30;;
3207;SDS011;1616;52.394;9.756;2023-01-01T01:01:40;7.93;;;1.70;;
3207;SDS011;1616;52.394;9.756;2023-01-01T01:04:06;6.13;;;1.97;;
3207;SDS011;1616;52.394;9.756;2023-01-01T01:06:33;3.60;;;1.93;;
3207;SDS011;1616;52.394;9.756;2023-01-01T01:09:01;4.50;;;2.30;;
3207;SDS011;1616;52.394;9.756;2023-01-01T01:11:28;4.50;;;2.17;;
3207;SDS011;1616;52.394;9.756;2023-01-01T01:13:56;11.30;;;2.53;;
3207;SDS011;1616;52.394;9.756;2023-01-01T01:16:25;12.60;;;4.30;;
3207;SDS011;1616;52.394;9.756;2023-01-01T01:18:57;13.03;;;2.83;;
3207;SDS011;1616;52.394;9.756;2023-01-01T01:21:25;9.03;;;2.60;;
3207;SDS011;1616;52.394;9.756;2023-01-01T01:23:52;9.63;;;2.30;;
3207;SDS011;1616;52.394;9.756;2023-01-01T01:26:21;4.63;;;2.83;;
3207;SDS011;1616;52.394;9.756;2023-01-01T01:28:48;5.73;;;2.77;;
3207;SDS011;1616;52.394;9.756;2023-01-01T01:31:18;8.83;;;3.00;;
3207;SDS011;1616;52.394;9.756;2023-01-01T01:33:48;7.17;;;3.20;;
3207;SDS011;1616;52.394;9.756;2023-01-01T01:36:15;15.00;;;4.67;;
3207;SDS011;1616;52.394;9.756;2023-01-01T01:38:42;7.90;;;3.33;;
3207;SDS011;1616;52.394;9.756;2023-01-01T01:41:09;6.23;;;3.20;;
3207;SDS011;1616;52.394;9.756;2023-01-01T01:46:09;14.40;;;3.70;;
3207;SDS011;1616;52.394;9.756;2023-01-01T01:48:45;10.00;;;2.57;;
3207;SDS011;1616;52.394;9.756;2023-01-01T01:51:13;8.73;;;2.60;;
3207;SDS011;1616;52.394;9.756;2023-01-01T01:53:45;11.00;;;3.10;;
3207;SDS011;1616;52.394;9.756;2023-01-01T01:56:28;6.93;;;3.37;;
3207;SDS011;1616;52.394;9.756;2023-01-01T01:59:03;10.30;;;4.10;;
3207;SDS011;1616;52.394;9.756;2023-01-01T02:01:29;8.37;;;3.90;;
3207;SDS011;1616;52.394;9.756;2023-01-01T02:06:28;9.90;;;4.33;;
3207;SDS011;1616;52.394;9.756;2023-01-01T02:08:55;11.40;;;3.80;;
3207;SDS011;1616;52.394;9.756;2023-01-01T02:11:23;7.10;;;3.87;;
3207;SDS011;1616;52.394;9.756;2023-01-01T02:13:49;12.30;;;3.57;;
3207;SDS011;1616;52.394;9.756;2023-01-01T02:16:50;19.73;;;4.47;;
3207;SDS011;1616;52.394;9.756;2023-01-01T02:29:59;13.73;;;4.17;;
3207;SDS011;1616;52.394;9.756;2023-01-01T02:32:31;4.10;;;3.70;;
3207;SDS011;1616;52.394;9.756;2023-01-01T02:35:10;9.13;;;3.17;;
3207;SDS011;1616;52.394;9.756;2023-01-01T02:38:21;13.30;;;4.07;;
3207;SDS011;1616;52.394;9.756;2023-01-01T02:40:52;10.90;;;2.73;;
3207;SDS011;1616;52.394;9.756;2023-01-01T02:43:24;16.30;;;3.83;;
3207;SDS011;1616;52.394;9.756;2023-01-01T02:45:51;6.73;;;3.67;;
3207;SDS011;1616;52.394;9.756;2023-01-01T02:48:35;9.50;;;3.10;;
3207;SDS011;1616;52.394;9.756;2023-01-01T02:51:02;8.93;;;2.93;;
3207;SDS011;1616;52.394;9.756;2023-01-01T02:53:35;13.20;;;3.53;;
3207;SDS011;1616;52.394;9.756;2023-01-01T02:58:40;6.60;;;3.87;;
3207;SDS011;1616;52.394;9.756;2023-01-01T03:07:16;8.10;;;2.93;;
3207;SDS011;1616;52.394;9.756;2023-01-01T03:09:58;9.83;;;3.27;;
3207;SDS011;1616;52.394;9.756;2023-01-01T03:12:39;4.30;;;3.23;;
3207;SDS011;1616;52.394;9.756;2023-01-01T03:17:57;8.47;;;3.03;;
3207;SDS011;1616;52.394;9.756;2023-01-01T03:20:30;11.63;;;3.73;;
3207;SDS011;1616;52.394;9.756;2023-01-01T03:22:58;13.00;;;4.10;;
3207;SDS011;1616;52.394;9.756;2023-01-01T03:25:35;5.13;;;2.90;;
3207;SDS011;1616;52.394;9.756;2023-01-01T03:28:06;6.70;;;3.07;;
3207;SDS011;1616;52.394;9.756;2023-01-01T03:30:38;7.67;;;3.70;;
3207;SDS011;1616;52.394;9.756;2023-01-01T03:33:29;7.03;;;3.07;;
3207;SDS011;1616;52.394;9.756;2023-01-01T03:36:05;10.80;;;4.03;;
3207;SDS011;1616;52.394;9.756;2023-01-01T03:38:39;6.20;;;2.87;;
3207;SDS011;1616;52.394;9.756;2023-01-01T03:41:46;13.20;;;2.63;;
3207;SDS011;1616;52.394;9.756;2023-01-01T03:46:52;7.60;;;3.10;;
3207;SDS011;1616;52.394;9.756;2023-01-01T03:49:18;5.50;;;2.77;;
3207;SDS011;1616;52.394;9.756;2023-01-01T04:00:21;6.70;;;2.17;;
3207;SDS011;1616;52.394;9.756;2023-01-01T04:03:08;7.43;;;2.50;;
3207;SDS011;1616;52.394;9.756;2023-01-01T04:05:40;6.73;;;2.43;;
3207;SDS011;1616;52.394;9.756;2023-01-01T04:08:07;3.30;;;2.07;;
3207;SDS011;1616;52.394;9.756;2023-01-01T04:10:35;4.73;;;1.60;;
3207;SDS011;1616;52.394;9.756;2023-01-01T04:13:05;5.93;;;2.10;;
3207;SDS011;1616;52.394;9.756;2023-01-01T04:15:31;6.23;;;1.80;;
3207;SDS011;1616;52.394;9.756;2023-01-01T04:17:58;6.33;;;2.53;;
3207;SDS011;1616;52.394;9.756;2023-01-01T04:20:24;4.63;;;1.80;;
3207;SDS011;1616;52.394;9.756;2023-01-01T04:22:50;3.20;;;2.10;;
3207;SDS011;1616;52.394;9.756;2023-01-01T04:25:16;6.23;;;2.03;;
3207;SDS011;1616;52.394;9.756;2023-01-01T04:27:42;6.67;;;2.30;;
3207;SDS011;1616;52.394;9.756;2023-01-01T04:30:09;2.50;;;1.67;;
3207;SDS011;1616;52.394;9.756;2023-01-01T04:32:37;2.77;;;1.87;;
3207;SDS011;1616;52.394;9.756;2023-01-01T04:35:03;4.63;;;1.80;;
3207;SDS011;1616;52.394;9.756;2023-01-01T04:37:30;2.00;;;1.80;;
3207;SDS011;1616;52.394;9.756;2023-01-01T04:40:10;2.63;;;1.70;;
3207;SDS011;1616;52.394;9.756;2023-01-01T04:42:38;4.30;;;1.90;;
3207;SDS011;1616;52.394;9.756;2023-01-01T04:45:04;10.00;;;2.23;;
3207;SDS011;1616;52.394;9.756;2023-01-01T04:47:30;3.03;;;1.30;;
3207;SDS011;1616;52.394;9.756;2023-01-01T04:49:55;4.90;;;1.40;;
3207;SDS011;1616;52.394;9.756;2023-01-01T04:52:21;2.43;;;1.40;;
3207;SDS011;1616;52.394;9.756;2023-01-01T04:54:46;4.23;;;1.67;;
3207;SDS011;1616;52.394;9.756;2023-01-01T04:57:12;2.37;;;1.40;;
3207;SDS011;1616;52.394;9.756;2023-01-01T04:59:38;2.30;;;1.30;;
3207;SDS011;1616;52.394;9.756;2023-01-01T05:02:04;5.07;;;1.67;;
3207;SDS011;1616;52.394;9.756;2023-01-01T05:04:29;3.13;;;1.50;;
3207;SDS011;1616;52.394;9.756;2023-01-01T05:06:55;5.60;;;1.53;;
3207;SDS011;1616;52.394;9.756;2023-01-01T05:09:20;3.07;;;1.30;;
3207;SDS011;1616;52.394;9.756;2023-01-01T05:11:46;1.70;;;1.10;;
3207;SDS011;1616;52.394;9.756;2023-01-01T05:14:11;3.37;;;1.40;;
3207;SDS011;1616;52.394;9.756;2023-01-01T05:16:37;5.30;;;1.70;;
3207;SDS011;1616;52.394;9.756;2023-01-01T05:19:04;9.87;;;1.67;;
3207;SDS011;1616;52.394;9.756;2023-01-01T05:21:31;4.17;;;1.57;;
3207;SDS011;1616;52.394;9.756;2023-01-01T05:23:59;3.93;;;1.20;;
3207;SDS011;1616;52.394;9.756;2023-01-01T05:26:31;3.00;;;1.70;;
3207;SDS011;1616;52.394;9.756;2023-01-01T05:28:58;4.00;;;1.53;;
3207;SDS011;1616;52.394;9.756;2023-01-01T05:31:25;2.67;;;1.27;;
3207;SDS011;1616;52.394;9.756;2023-01-01T05:33:53;1.63;;;1.27;;
3207;SDS011;1616;52.394;9.756;2023-01-01T05:36:23;5.67;;;1.60;;
3207;SDS011;1616;52.394;9.756;2023-01-01T05:38:53;7.60;;;1.00;;
3207;SDS011;1616;52.394;9.756;2023-01-01T05:41:21;3.30;;;1.40;;
3207;SDS011;1616;52.394;9.756;2023-01-01T05:43:47;7.93;;;1.27;;
3207;SDS011;1616;52.394;9.756;2023-01-01T05:46:21;1.80;;;1.03;;
3207;SDS011;1616;52.394;9.756;2023-01-01T05:48:48;2.80;;;1.53;;
3207;SDS011;1616;52.394;9.756;2023-01-01T05:51:18;2.53;;;1.03;;
3207;SDS011;1616;52.394;9.756;2023-01-01T05:53:46;8.93;;;1.83;;
3207;SDS011;1616;52.394;9.756;2023-01-01T05:56:12;5.77;;;1.80;;
3207;SDS011;1616;52.394;9.756;2023-01-01T05:58:38;2.20;;;1.10;;
3207;SDS011;1616;52.394;9.756;2023-01-01T06:03:44;1.43;;;1.00;;
3207;SDS011;1616;52.394;9.756;2023-01-01T06:06:14;1.33;;;1.00;;
3207;SDS011;1616;52.394;9.756;2023-01-01T06:08:53;2.40;;;1.00;;
3207;SDS011;1616;52.394;9.756;2023-01-01T06:11:24;2.40;;;1.30;;
3207;SDS011;1616;52.394;9.756;2023-01-01T06:13:51;1.30;;;0.93;;
3207;SDS011;1616;52.394;9.756;2023-01-01T06:16:18;3.00;;;0.90;;
3207;SDS011;1616;52.394;9.756;2023-01-01T06:18:43;1.80;;;1.00;;
3207;SDS011;1616;52.394;9.756;2023-01-01T06:21:10;6.50;;;1.03;;
3207;SDS011;1616;52.394;9.756;2023-01-01T06:23:40;2.37;;;1.43;;
3207;SDS011;1616;52.394;9.756;2023-01-01T06:26:10;1.27;;;0.93;;
3207;SDS011;1616;52.394;9.756;2023-01-01T06:28:38;3.43;;;0.90;;
3207;SDS011;1616;52.394;9.756;2023-01-01T06:31:05;3.87;;;1.00;;
3207;SDS011;1616;52.394;9.756;2023-01-01T06:33:31;1.50;;;0.87;;
3207;SDS011;1616;52.394;9.756;2023-01-01T06:35:57;6.23;;;1.30;;
3207;SDS011;1616;52.394;9.756;2023-01-01T06:38:23;2.17;;;0.90;;
3207;SDS011;1616;52.394;9.756;2023-01-01T06:41:10;3.50;;;0.97;;
3207;SDS011;1616;52.394;9.756;2023-01-01T06:43:35;2.03;;;1.00;;
3207;SDS011;1616;52.394;9.756;2023-01-01T06:46:04;2.27;;;0.90;;
3207;SDS011;1616;52.394;9.756;2023-01-01T06:48:33;1.90;;;0.90;;
3207;SDS011;1616;52.394;9.756;2023-01-01T06:51:06;1.60;;;0.90;;
3207;SDS011;1616;52.394;9.756;2023-01-01T06:53:37;1.83;;;0.90;;
3207;SDS011;1616;52.394;9.756;2023-01-01T06:56:03;2.30;;;1.13;;
3207;SDS011;1616;52.394;9.756;2023-01-01T06:58:30;1.43;;;0.90;;
3207;SDS011;1616;52.394;9.756;2023-01-01T07:01:12;4.20;;;0.97;;
3207;SDS011;1616;52.394;9.756;2023-01-01T07:03:44;2.63;;;0.80;;
3207;SDS011;1616;52.394;9.756;2023-01-01T07:06:15;2.20;;;1.10;;
3207;SDS011;1616;52.394;9.756;2023-01-01T07:08:41;1.30;;;1.00;;
3207;SDS011;1616;52.394;9.756;2023-01-01T07:11:07;1.80;;;0.80;;
3207;SDS011;1616;52.394;9.756;2023-01-01T07:13:32;4.37;;;1.10;;
3207;SDS011;1616;52.394;9.756;2023-01-01T07:15:58;4.10;;;1.00;;
3207;SDS011;1616;52.394;9.756;2023-01-01T07:18:24;2.57;;;1.00;;
3207;SDS011;1616;52.394;9.756;2023-01-01T07:20:50;1.07;;;0.83;;
3207;SDS011;1616;52.394;9.756;2023-01-01T07:23:18;1.57;;;0.90;;
3207;SDS011;1616;52.394;9.756;2023-01-01T07:25:44;2.37;;;1.17;;
3207;SDS011;1616;52.394;9.756;2023-01-01T07:28:12;1.90;;;0.80;;
3207;SDS011;1616;52.394;9.756;2023-01-01T07:30:38;1.63;;;0.93;;
3207;SDS011;1616;52.394;9.756;2023-01-01T07:33:04;0.90;;;0.70;;
3207;SDS011;1616;52.394;9.756;2023-01-01T07:35:29;4.20;;;1.00;;
3207;SDS011;1616;52.394;9.756;2023-01-01T07:37:54;3.90;;;0.90;;
3207;SDS011;1616;52.394;9.756;2023-01-01T07:40:20;2.03;;;1.20;;
3207;SDS011;1616;52.394;9.756;2023-01-01T07:42:46;1.50;;;0.80;;
3207;SDS011;1616;52.394;9.756;2023-01-01T07:45:11;7.17;;;1.00;;
3207;SDS011;1616;52.394;9.756;2023-01-01T07:47:38;2.30;;;0.97;;
3207;SDS011;1616;52.394;9.756;2023-01-01T07:50:04;1.37;;;0.90;;
3207;SDS011;1616;52.394;9.756;2023-01-01T07:52:30;3.33;;;0.73;;
3207;SDS011;1616;52.394;9.756;2023-01-01T07:54:56;6.93;;;0.90;;
3207;SDS011;1616;52.394;9.756;2023-01-01T07:57:21;4.13;;;1.20;;
3207;SDS011;1616;52.394;9.756;2023-01-01T07:59:47;1.50;;;0.90;;
3207;SDS011;1616;52.394;9.756;2023-01-01T08:02:12;5.70;;;1.20;;
3207;SDS011;1616;52.394;9.756;2023-01-01T08:04:38;8.00;;;0.80;;
3207;SDS011;1616;52.394;9.756;2023-01-01T08:07:04;1.47;;;0.93;;
3207;SDS011;1616;52.394;9.756;2023-01-01T08:09:30;2.80;;;0.87;;
3207;SDS011;1616;52.394;9.756;2023-01-01T08:11:55;2.03;;;0.80;;
3207;SDS011;1616;52.394;9.756;2023-01-01T08:14:22;2.10;;;1.10;;
3207;SDS011;1616;52.394;9.756;2023-01-01T08:16:49;6.50;;;1.00;;
3207;SDS011;1616;52.394;9.756;2023-01-01T08:19:15;2.10;;;1.10;;
3207;SDS011;1616;52.394;9.756;2023-01-01T08:21:41;1.70;;;1.07;;
3207;SDS011;1616;52.394;9.756;2023-01-01T08:24:06;5.40;;;0.93;;
3207;SDS011;1616;52.394;9.756;2023-01-01T08:26:33;1.30;;;0.90;;
3207;SDS011;1616;52.394;9.756;2023-01-01T08:29:04;2.50;;;0.90;;
3207;SDS011;1616;52.394;9.756;2023-01-01T08:31:30;2.17;;;0.90;;
3207;SDS011;1616;52.394;9.756;2023-01-01T08:33:57;2.80;;;1.10;;
3207;SDS011;1616;52.394;9.756;2023-01-01T08:36:22;6.70;;;1.40;;
3207;SDS011;1616;52.394;9.756;2023-01-01T08:38:48;2.20;;;1.20;;
3207;SDS011;1616;52.394;9.756;2023-01-01T08:41:13;2.53;;;1.60;;
3207;SDS011;1616;52.394;9.756;2023-01-01T08:43:39;1.80;;;1.07;;
3207;SDS011;1616;52.394;9.756;2023-01-01T08:46:05;1.40;;;1.00;;
3207;SDS011;1616;52.394;9.756;2023-01-01T08:48:30;3.50;;;1.50;;
3207;SDS011;1616;52.394;9.756;2023-01-01T08:50:57;2.93;;;1.60;;
3207;SDS011;1616;52.394;9.756;2023-01-01T08:53:27;5.10;;;0.90;;
3207;SDS011;1616;52.394;9.756;2023-01-01T08:56:02;3.27;;;1.60;;
3207;SDS011;1616;52.394;9.756;2023-01-01T08:58:34;3.53;;;0.93;;
3207;SDS011;1616;52.394;9.756;2023-01-01T09:01:01;2.60;;;1.00;;
3207;SDS011;1616;52.394;9.756;2023-01-01T09:03:27;1.87;;;1.70;;
3207;SDS011;1616;52.394;9.756;2023-01-01T09:05:53;1.70;;;1.23;;
3207;SDS011;1616;52.394;9.756;2023-01-01T09:08:19;3.50;;;1.50;;
3207;SDS011;1616;52.394;9.756;2023-01-01T09:10:45;1.90;;;1.00;;
3207;SDS011;1616;52.394;9.756;2023-01-01T09:13:13;2.30;;;1.20;;
3207;SDS011;1616;52.394;9.756;2023-01-01T09:15:40;7.53;;;1.13;;
3207;SDS011;1616;52.394;9.756;2023-01-01T09:18:09;1.63;;;0.93;;
3207;SDS011;1616;52.394;9.756;2023-01-01T09:20:35;1.40;;;1.00;;
3207;SDS011;1616;52.394;9.756;2023-01-01T09:23:02;2.37;;;0.93;;
3207;SDS011;1616;52.394;9.756;2023-01-01T09:25:28;2.47;;;1.10;;
3207;SDS011;1616;52.394;9.756;2023-01-01T09:27:57;1.30;;;1.10;;
3207;SDS011;1616;52.394;9.756;2023-01-01T09:30:24;1.20;;;0.80;;
3207;SDS011;1616;52.394;9.756;2023-01-01T09:32:50;4.63;;;1.00;;
3207;SDS011;1616;52.394;9.756;2023-01-01T09:35:15;5.13;;;1.90;;
3207;SDS011;1616;52.394;9.756;2023-01-01T09:37:41;4.00;;;1.10;;
3207;SDS011;1616;52.394;9.756;2023-01-01T09:40:13;1.50;;;0.90;;
3207;SDS011;1616;52.394;9.756;2023-01-01T09:43:03;2.43;;;1.07;;
3207;SDS011;1616;52.394;9.756;2023-01-01T09:48:21;1.30;;;0.80;;
3207;SDS011;1616;52.394;9.756;2023-01-01T09:50:48;3.53;;;1.03;;
3207;SDS011;1616;52.394;9.756;2023-01-01T09:53:34;3.27;;;1.00;;
3207;SDS011;1616;52.394;9.756;2023-01-01T09:56:08;2.40;;;0.80;;
3207;SDS011;1616;52.394;9.756;2023-01-01T09:58:39;2.90;;;0.93;;
3207;SDS011;1616;52.394;9.756;2023-01-01T10:06:55;2.07;;;1.03;;
3207;SDS011;1616;52.394;9.756;2023-01-01T10:09:46;3.50;;;1.00;;
3207;SDS011;1616;52.394;9.756;2023-01-01T10:12:44;2.03;;;1.07;;
3207;SDS011;1616;52.394;9.756;2023-01-01T10:15:27;1.33;;;0.97;;
3207;SDS011;1616;52.394;9.756;2023-01-01T10:17:58;3.20;;;1.13;;
3207;SDS011;1616;52.394;9.756;2023-01-01T10:20:41;3.13;;;1.57;;
3207;SDS011;1616;52.394;9.756;2023-01-01T10:25:48;1.50;;;1.20;;
3207;SDS011;1616;52.394;9.756;2023-01-01T10:28:25;1.53;;;1.20;;
3207;SDS011;1616;52.394;9.756;2023-01-01T10:31:09;3.90;;;1.30;;
3207;SDS011;1616;52.394;9.756;2023-01-01T10:33:39;2.80;;;1.13;;
3207;SDS011;1616;52.394;9.756;2023-01-01T10:36:06;1.80;;;1.10;;
3207;SDS011;1616;52.394;9.756;2023-01-01T10:38:35;3.00;;;1.30;;
3207;SDS011;1616;52.394;9.756;2023-01-01T10:41:05;4.87;;;1.70;;
3207;SDS011;1616;52.394;9.756;2023-01-01T10:43:34;4.00;;;1.50;;
3207;SDS011;1616;52.394;9.756;2023-01-01T10:46:00;2.83;;;1.33;;
3207;SDS011;1616;52.394;9.756;2023-01-01T10:48:27;3.43;;;1.50;;
3207;SDS011;1616;52.394;9.756;2023-01-01T11:00:59;1.30;;;1.10;;
3207;SDS011;1616;52.394;9.756;2023-01-01T11:03:26;3.73;;;1.33;;
3207;SDS011;1616;52.394;9.756;2023-01-01T11:05:59;2.90;;;1.30;;
3207;SDS011;1616;52.394;9.756;2023-01-01T11:08:26;2.40;;;1.40;;
3207;SDS011;1616;52.394;9.756;2023-01-01T11:10:53;3.03;;;1.40;;
3207;SDS011;1616;52.394;9.756;2023-01-01T11:13:21;6.23;;;2.07;;
3207;SDS011;1616;52.394;9.756;2023-01-01T11:15:47;2.40;;;1.60;;
3207;SDS011;1616;52.394;9.756;2023-01-01T11:18:14;1.60;;;1.50;;
3207;SDS011;1616;52.394;9.756;2023-01-01T11:20:52;1.67;;;1.57;;
3207;SDS011;1616;52.394;9.756;2023-01-01T11:23:30;4.07;;;1.40;;
3207;SDS011;1616;52.394;9.756;2023-01-01T11:26:02;4.13;;;1.40;;
3207;SDS011;1616;52.394;9.756;2023-01-01T11:28:28;5.37;;;1.70;;
3207;SDS011;1616;52.394;9.756;2023-01-01T11:31:00;3.90;;;1.47;;
3207;SDS011;1616;52.394;9.756;2023-01-01T11:33:33;5.97;;;2.07;;
3207;SDS011;1616;52.394;9.756;2023-01-01T11:36:01;1.27;;;0.90;;
3207;SDS011;1616;52.394;9.756;2023-01-01T11:38:29;2.90;;;0.80;;
3207;SDS011;1616;52.394;9.756;2023-01-01T11:40:55;2.37;;;1.10;;
3207;SDS011;1616;52.394;9.756;2023-01-01T11:43:27;1.93;;;1.10;;
3207;SDS011;1616;52.394;9.756;2023-01-01T11:45:56;2.40;;;1.00;;
3207;SDS011;1616;52.394;9.756;2023-01-01T11:48:27;3.20;;;1.00;;
3207;SDS011;1616;52.394;9.756;2023-01-01T11:50:59;2.83;;;0.90;;
3207;SDS011;1616;52.394;9.756;2023-01-01T11:53:29;2.33;;;0.90;;
3207;SDS011;1616;52.394;9.756;2023-01-01T11:55:59;1.83;;;1.00;;
3207;SDS011;1616;52.394;9.756;2023-01-01T12:01:02;2.30;;;0.97;;
3207;SDS011;1616;52.394;9.756;2023-01-01T12:06:10;1.87;;;0.90;;
3207;SDS011;1616;52.394;9.756;2023-01-01T12:08:51;2.70;;;1.00;;
3207;SDS011;1616;52.394;9.756;2023-01-01T12:11:30;3.30;;;0.97;;
3207;SDS011;1616;52.394;9.756;2023-01-01T12:17:23;1.93;;;1.00;;
3207;SDS011;1616;52.394;9.756;2023-01-01T12:20:37;2.23;;;1.00;;
3207;SDS011;1616;52.394;9.756;2023-01-01T12:22:49;3.73;;;0.97;;
3207;SDS011;1616;52.394;9.756;2023-01-01T12:25:17;1.47;;;0.80;;
3207;SDS011;1616;52.394;9.756;2023-01-01T12:30:38;3.27;;;0.90;;
3207;SDS011;1616;52.394;9.756;2023-01-01T12:36:36;2.83;;;1.33;;
3207;SDS011;1616;52.394;9.756;2023-01-01T12:56:02;3.53;;;1.30;;
3207;SDS011;1616;52.394;9.756;2023-01-01T12:58:35;8.10;;;1.43;;
3207;SDS011;1616;52.394;9.756;2023-01-01T13:01:22;2.00;;;1.40;;
3207;SDS011;1616;52.394;9.756;2023-01-01T13:03:57;2.80;;;1.23;;
3207;SDS011;1616;52.394;9.756;2023-01-01T13:06:30;1.90;;;1.30;;
3207;SDS011;1616;52.394;9.756;2023-01-01T13:09:06;1.40;;;1.07;;
3207;SDS011;1616;52.394;9.756;2023-01-01T13:11:37;1.50;;;1.37;;
3207;SDS011;1616;52.394;9.756;2023-01-01T13:14:05;2.73;;;1.40;;
3207;SDS011;1616;52.394;9.756;2023-01-01T13:16:35;3.07;;;1.57;;
3207;SDS011;1616;52.394;9.756;2023-01-01T13:19:03;2.53;;;1.20;;
3207;SDS011;1616;52.394;9.756;2023-01-01T13:21:29;1.73;;;1.30;;
3207;SDS011;1616;52.394;9.756;2023-01-01T13:24:03;3.33;;;1.37;;
3207;SDS011;1616;52.394;9.756;2023-01-01T13:26:42;1.60;;;1.40;;
3207;SDS011;1616;52.394;9.756;2023-01-01T13:51:09;2.73;;;2.10;;
3207;SDS011;1616;52.394;9.756;2023-01-01T13:57:03;2.40;;;2.20;;
3207;SDS011;1616;52.394;9.756;2023-01-01T14:02:39;3.70;;;2.00;;
3207;SDS011;1616;52.394;9.756;2023-01-01T14:05:23;4.57;;;1.80;;
3207;SDS011;1616;52.394;9.756;2023-01-01T14:08:02;4.13;;;2.80;;
3207;SDS011;1616;52.394;9.756;2023-01-01T14:15:32;4.67;;;3.23;;
3207;SDS011;1616;52.394;9.756;2023-01-01T14:18:00;4.00;;;3.30;;
3207;SDS011;1616;52.394;9.756;2023-01-01T14:20:33;10.13;;;3.00;;
3207;SDS011;1616;52.394;9.756;2023-01-01T14:25:48;4.87;;;3.07;;
3207;SDS011;1616;52.394;9.756;2023-01-01T14:28:28;3.13;;;2.83;;
3207;SDS011;1616;52.394;9.756;2023-01-01T14:30:56;9.23;;;3.27;;
3207;SDS011;1616;52.394;9.756;2023-01-01T14:33:25;3.63;;;2.93;;
3207;SDS011;1616;52.394;9.756;2023-01-01T14:35:56;5.70;;;2.93;;
3207;SDS011;1616;52.394;9.756;2023-01-01T14:41:07;5.53;;;2.53;;
3207;SDS011;1616;52.394;9.756;2023-01-01T14:43:54;3.30;;;2.27;;
3207;SDS011;1616;52.394;9.756;2023-01-01T14:46:25;3.47;;;2.33;;
3207;SDS011;1616;52.394;9.756;2023-01-01T14:48:53;7.10;;;5.50;;
3207;SDS011;1616;52.394;9.756;2023-01-01T14:51:22;5.40;;;3.97;;
3207;SDS011;1616;52.394;9.756;2023-01-01T14:53:51;4.70;;;3.57;;
3207;SDS011;1616;52.394;9.756;2023-01-01T14:58:52;3.80;;;2.00;;
3207;SDS011;1616;52.394;9.756;2023-01-01T15:01:23;6.13;;;2.27;;
3207;SDS011;1616;52.394;9.756;2023-01-01T15:03:56;8.10;;;5.10;;
3207;SDS011;1616;52.394;9.756;2023-01-01T15:06:24;12.10;;;7.03;;
3207;SDS011;1616;52.394;9.756;2023-01-01T15:08:51;6.60;;;4.50;;
3207;SDS011;1616;52.394;9.756;2023-01-01T15:11:17;6.37;;;3.63;;
3207;SDS011;1616;52.394;9.756;2023-01-01T15:16:22;6.03;;;3.70;;
3207;SDS011;1616;52.394;9.756;2023-01-01T15:18:48;10.53;;;2.80;;
3207;SDS011;1616;52.394;9.756;2023-01-01T15:21:50;5.90;;;2.93;;
3207;SDS011;1616;52.394;9.756;2023-01-01T15:24:13;4.33;;;1.77;;
3207;SDS011;1616;52.394;9.756;2023-01-01T15:29:18;6.13;;;2.33;;
3207;SDS011;1616;52.394;9.756;2023-01-01T15:34:48;5.80;;;2.33;;
3207;SDS011;1616;52.394;9.756;2023-01-01T15:37:18;5.20;;;1.93;;
3207;SDS011;1616;52.394;9.756;2023-01-01T15:40:28;12.30;;;2.43;;
3207;SDS011;1616;52.394;9.756;2023-01-01T15:51:31;2.67;;;2.10;;
3207;SDS011;1616;52.394;9.756;2023-01-01T15:53:33;5.23;;;2.17;;
3207;SDS011;1616;52.394;9.756;2023-01-01T15:56:10;2.97;;;1.57;;
3207;SDS011;1616;52.394;9.756;2023-01-01T16:01:24;3.90;;;1.90;;
3207;SDS011;1616;52.394;9.756;2023-01-01T16:03:57;4.17;;;1.77;;
3207;SDS011;1616;52.394;9.756;2023-01-01T16:06:32;2.83;;;1.60;;
3207;SDS011;1616;52.394;9.756;2023-01-01T16:09:07;5.73;;;1.70;;
3207;SDS011;1616;52.394;9.756;2023-01-01T16:11:37;3.77;;;1.93;;
3207;SDS011;1616;52.394;9.756;2023-01-01T16:14:03;3.50;;;2.00;;
3207;SDS011;1616;52.394;9.756;2023-01-01T16:16:29;3.10;;;1.77;;
3207;SDS011;1616;52.394;9.756;2023-01-01T16:18:55;5.13;;;1.90;;
3207;SDS011;1616;52.394;9.756;2023-01-01T16:21:31;3.63;;;2.37;;
3207;SDS011;1616;52.394;9.756;2023-01-01T16:23:57;3.67;;;1.90;;
3207;SDS011;1616;52.394;9.756;2023-01-01T16:26:23;3.90;;;1.87;;
3207;SDS011;1616;52.394;9.756;2023-01-01T16:28:49;3.07;;;2.03;;
3207;SDS011;1616;52.394;9.756;2023-01-01T16:31:16;9.90;;;3.63;;
3207;SDS011;1616;52.394;9.756;2023-01-01T16:33:50;7.57;;;2.17;;
3207;SDS011;1616;52.394;9.756;2023-01-01T16:36:18;4.67;;;2.40;;
3207;SDS011;1616;52.394;9.756;2023-01-01T16:38:43;2.90;;;1.90;;
3207;SDS011;1616;52.394;9.756;2023-01-01T16:41:13;6.17;;;3.70;;
3207;SDS011;1616;52.394;9.756;2023-01-01T16:43:40;12.77;;;10.73;;
3207;SDS011;1616;52.394;9.756;2023-01-01T16:46:07;21.70;;;17.00;;
3207;SDS011;1616;52.394;9.756;2023-01-01T16:48:33;37.80;;;19.07;;
3207;SDS011;1616;52.394;9.756;2023-01-01T16:50:59;37.87;;;16.77;;
3207;SDS011;1616;52.394;9.756;2023-01-01T16:53:25;18.30;;;10.90;;
3207;SDS011;1616;52.394;9.756;2023-01-01T16:55:51;15.43;;;9.73;;
3207;SDS011;1616;52.394;9.756;2023-01-01T16:58:17;24.80;;;10.93;;
3207;SDS011;1616;52.394;9.756;2023-01-01T17:00:43;51.57;;;22.23;;
3207;SDS011;1616;52.394;9.756;2023-01-01T17:03:09;28.40;;;14.63;;
3207;SDS011;1616;52.394;9.756;2023-01-01T17:05:35;15.43;;;10.10;;
3207;SDS011;1616;52.394;9.756;2023-01-01T17:08:01;20.83;;;11.83;;
3207;SDS011;1616;52.394;9.756;2023-01-01T17:10:27;13.57;;;9.67;;
3207;SDS011;1616;52.394;9.756;2023-01-01T17:12:54;6.57;;;5.00;;
3207;SDS011;1616;52.394;9.756;2023-01-01T17:15:26;12.03;;;6.83;;
3207;SDS011;1616;52.394;9.756;2023-01-01T17:17:53;7.23;;;4.87;;
3207;SDS011;1616;52.394;9.756;2023-01-01T17:20:19;6.00;;;5.30;;
3207;SDS011;1616;52.394;9.756;2023-01-01T17:22:44;8.70;;;5.30;;
3207;SDS011;1616;52.394;9.756;2023-01-01T17:25:10;9.20;;;4.43;;
3207;SDS011;1616;52.394;9.756;2023-01-01T17:27:36;5.97;;;4.93;;
3207;SDS011;1616;52.394;9.756;2023-01-01T17:30:02;12.33;;;5.80;;
3207;SDS011;1616;52.394;9.756;2023-01-01T17:32:28;13.77;;;5.80;;
3207;SDS011;1616;52.394;9.756;2023-01-01T17:34:58;15.40;;;4.80;;
3207;SDS011;1616;52.394;9.756;2023-01-01T17:37:24;5.73;;;5.10;;
3207;SDS011;1616;52.394;9.756;2023-01-01T17:39:50;6.23;;;5.07;;
3207;SDS011;1616;52.394;9.756;2023-01-01T17:42:16;5.40;;;4.90;;
3207;SDS011;1616;52.394;9.756;2023-01-01T17:44:42;7.40;;;5.30;;
3207;SDS011;1616;52.394;9.756;2023-01-01T17:47:07;3.53;;;3.23;;
3207;SDS011;1616;52.394;9.756;2023-01-01T17:49:33;8.20;;;3.30;;
3207;SDS011;1616;52.394;9.756;2023-01-01T17:51:58;6.37;;;3.30;;
3207;SDS011;1616;52.394;9.756;2023-01-01T17:54:25;13.53;;;3.67;;
3207;SDS011;1616;52.394;9.756;2023-01-01T17:56:51;4.63;;;2.90;;
3207;SDS011;1616;52.394;9.756;2023-01-01T17:59:17;5.13;;;1.93;;
3207;SDS011;1616;52.394;9.756;2023-01-01T18:01:43;6.47;;;2.60;;